sensor_id;sensor_type;location;lat;lon;timestamp;temperature;humidity
43541;DHT22;29549;40.386;-3.710;2023-02-11T00:06:39;7.60;53.00
43541;DHT22;29549;40.386;-3.710;2023-02-11T00:16:41;7.50;53.00
43541;DHT22;29549;40.386;-3.710;2023-02-11T00:26:44;7.40;52.80
43541;DHT22;29549;40.386;-3.710;2023-02-11T00:36:47;7.40;52.70
43541;DHT22;29549;40.386;-3.710;2023-02-11T00:47:09;7.40;52.60
43541;DHT22;29549;40.386;-3.710;2023-02-11T00:57:30;7.30;52.80
43541;DHT22;29549;40.386;-3.710;2023-02-11T01:07:48;7.20;53.10
43541;DHT22;29549;40.386;-3.710;2023-02-11T01:18:09;7.20;53.10
43541;DHT22;29549;40.386;-3.710;2023-02-11T01:28:30;7.10;53.30
43541;DHT22;29549;40.386;-3.710;2023-02-11T01:38:35;7.00;53.50
43541;DHT22;29549;40.386;-3.710;2023-02-11T01:48:44;7.00;53.90
43541;DHT22;29549;40.386;-3.710;2023-02-11T01:58:48;6.80;54.20
43541;DHT22;29549;40.386;-3.710;2023-02-11T02:09:04;6.80;54.30
43541;DHT22;29549;40.386;-3.710;2023-02-11T02:39:33;6.70;54.00
43541;DHT22;29549;40.386;-3.710;2023-02-11T03:30:41;5.60;55.40
43541;DHT22;29549;40.386;-3.710;2023-02-11T03:40:46;5.40;56.20
43541;DHT22;29549;40.386;-3.710;2023-02-11T03:50:51;5.00;57.00
43541;DHT22;29549;40.386;-3.710;2023-02-11T07:02:09;5.30;56.60
43541;DHT22;29549;40.386;-3.710;2023-02-11T07:12:11;5.00;57.80
43541;DHT22;29549;40.386;-3.710;2023-02-11T07:22:13;5.00;58.10
43541;DHT22;29549;40.386;-3.710;2023-02-11T07:32:15;5.00;58.00
43541;DHT22;29549;40.386;-3.710;2023-02-11T07:42:16;5.10;57.50
43541;DHT22;29549;40.386;-3.710;2023-02-11T07:52:18;5.00;57.90
43541;DHT22;29549;40.386;-3.710;2023-02-11T08:02:21;5.10;57.50
43541;DHT22;29549;40.386;-3.710;2023-02-11T08:12:22;5.20;57.20
43541;DHT22;29549;40.386;-3.710;2023-02-11T08:22:24;5.30;57.00
43541;DHT22;29549;40.386;-3.710;2023-02-11T08:32:27;5.40;56.30
43541;DHT22;29549;40.386;-3.710;2023-02-11T08:42:28;5.60;55.90
43541;DHT22;29549;40.386;-3.710;2023-02-11T08:52:30;5.80;54.60
43541;DHT22;29549;40.386;-3.710;2023-02-11T09:02:33;5.80;54.60
43541;DHT22;29549;40.386;-3.710;2023-02-11T09:12:35;5.90;54.10
43541;DHT22;29549;40.386;-3.710;2023-02-11T09:22:37;6.10;54.00
43541;DHT22;29549;40.386;-3.710;2023-02-11T09:32:39;6.40;52.70
43541;DHT22;29549;40.386;-3.710;2023-02-11T09:43:15;6.70;51.90
43541;DHT22;29549;40.386;-3.710;2023-02-11T09:53:24;6.70;51.80
43541;DHT22;29549;40.386;-3.710;2023-02-11T10:13:59;7.20;50.40
43541;DHT22;29549;40.386;-3.710;2023-02-11T10:24:10;7.30;50.30
43541;DHT22;29549;40.386;-3.710;2023-02-11T10:34:13;7.50;49.80
43541;DHT22;29549;40.386;-3.710;2023-02-11T10:44:29;7.70;49.10
43541;DHT22;29549;40.386;-3.710;2023-02-11T10:54:31;8.00;48.60
43541;DHT22;29549;40.386;-3.710;2023-02-11T11:04:38;8.20;48.40
43541;DHT22;29549;40.386;-3.710;2023-02-11T11:15:00;8.50;47.30
43541;DHT22;29549;40.386;-3.710;2023-02-11T11:25:02;8.60;47.20
43541;DHT22;29549;40.386;-3.710;2023-02-11T11:35:19;8.70;47.40
43541;DHT22;29549;40.386;-3.710;2023-02-11T11:45:25;9.00;46.50
43541;DHT22;29549;40.386;-3.710;2023-02-11T11:55:32;9.20;46.10
43541;DHT22;29549;40.386;-3.710;2023-02-11T12:05:42;9.40;46.10
43541;DHT22;29549;40.386;-3.710;2023-02-11T12:26:14;9.80;45.00
43541;DHT22;29549;40.386;-3.710;2023-02-11T12:57:35;10.50;43.80
43541;DHT22;29549;40.386;-3.710;2023-02-11T13:07:42;10.40;43.60
43541;DHT22;29549;40.386;-3.710;2023-02-11T13:38:28;10.80;42.50
43541;DHT22;29549;40.386;-3.710;2023-02-11T13:48:37;10.80;42.80
43541;DHT22;29549;40.386;-3.710;2023-02-11T13:58:49;10.80;42.90
43541;DHT22;29549;40.386;-3.710;2023-02-11T14:09:31;11.00;42.50
43541;DHT22;29549;40.386;-3.710;2023-02-11T14:19:42;11.20;42.40
43541;DHT22;29549;40.386;-3.710;2023-02-11T14:30:10;11.40;42.00
43541;DHT22;29549;40.386;-3.710;2023-02-11T14:50:22;11.30;42.30
43541;DHT22;29549;40.386;-3.710;2023-02-11T15:00:25;11.50;42.30
43541;DHT22;29549;40.386;-3.710;2023-02-11T15:10:40;11.50;41.10
43541;DHT22;29549;40.386;-3.710;2023-02-11T15:20:43;11.60;40.30
43541;DHT22;29549;40.386;-3.710;2023-02-11T15:30:45;11.60;40.10
43541;DHT22;29549;40.386;-3.710;2023-02-11T15:41:03;11.70;39.80
43541;DHT22;29549;40.386;-3.710;2023-02-11T15:51:26;11.70;40.40
43541;DHT22;29549;40.386;-3.710;2023-02-11T16:01:33;11.70;40.50
43541;DHT22;29549;40.386;-3.710;2023-02-11T16:11:54;11.60;40.80
43541;DHT22;29549;40.386;-3.710;2023-02-11T16:21:58;11.50;40.50
43541;DHT22;29549;40.386;-3.710;2023-02-11T16:32:17;11.40;41.50
43541;DHT22;29549;40.386;-3.710;2023-02-11T16:42:19;11.30;41.40
43541;DHT22;29549;40.386;-3.710;2023-02-11T16:52:21;11.20;41.60
43541;DHT22;29549;40.386;-3.710;2023-02-11T17:02:24;11.10;42.70
43541;DHT22;29549;40.386;-3.710;2023-02-11T17:12:26;11.00;43.20
43541;DHT22;29549;40.386;-3.710;2023-02-11T17:22:28;10.90;43.90
43541;DHT22;29549;40.386;-3.710;2023-02-11T17:32:31;10.80;44.30
43541;DHT22;29549;40.386;-3.710;2023-02-11T17:42:32;10.70;44.80
43541;DHT22;29549;40.386;-3.710;2023-02-11T17:52:34;10.60;44.90
43541;DHT22;29549;40.386;-3.710;2023-02-11T18:02:37;10.50;45.30
43541;DHT22;29549;40.386;-3.710;2023-02-11T18:12:38;10.30;46.00
43541;DHT22;29549;40.386;-3.710;2023-02-11T18:22:41;10.20;46.60
43541;DHT22;29549;40.386;-3.710;2023-02-11T18:32:44;10.10;47.20
43541;DHT22;29549;40.386;-3.710;2023-02-11T18:42:46;10.00;47.50
43541;DHT22;29549;40.386;-3.710;2023-02-11T18:52:48;9.90;47.80
43541;DHT22;29549;40.386;-3.710;2023-02-11T19:02:50;9.80;47.80
43541;DHT22;29549;40.386;-3.710;2023-02-11T19:12:56;9.60;48.30
43541;DHT22;29549;40.386;-3.710;2023-02-11T19:22:59;9.60;48.20
43541;DHT22;29549;40.386;-3.710;2023-02-11T19:33:01;9.40;48.70
43541;DHT22;29549;40.386;-3.710;2023-02-11T19:43:03;9.30;48.80
43541;DHT22;29549;40.386;-3.710;2023-02-11T19:53:05;9.30;48.90
43541;DHT22;29549;40.386;-3.710;2023-02-11T20:03:06;9.20;49.00
43541;DHT22;29549;40.386;-3.710;2023-02-11T20:13:08;9.20;49.10
43541;DHT22;29549;40.386;-3.710;2023-02-11T20:23:09;9.10;49.30
43541;DHT22;29549;40.386;-3.710;2023-02-11T20:33:11;9.00;49.50
43541;DHT22;29549;40.386;-3.710;2023-02-11T20:43:12;8.90;49.70
43541;DHT22;29549;40.386;-3.710;2023-02-11T20:53:14;8.80;49.90
43541;DHT22;29549;40.386;-3.710;2023-02-11T21:03:16;8.80;50.10
43541;DHT22;29549;40.386;-3.710;2023-02-11T21:13:17;8.70;50.30
43541;DHT22;29549;40.386;-3.710;2023-02-11T21:23:20;8.60;50.80
43541;DHT22;29549;40.386;-3.710;2023-02-11T21:33:23;8.50;51.00
43541;DHT22;29549;40.386;-3.710;2023-02-11T21:43:25;8.40;51.20
43541;DHT22;29549;40.386;-3.710;2023-02-11T21:53:27;8.20;51.50
43541;DHT22;29549;40.386;-3.710;2023-02-11T22:03:28;8.20;51.80
43541;DHT22;29549;40.386;-3.710;2023-02-11T22:13:30;8.10;51.90
43541;DHT22;29549;40.386;-3.710;2023-02-11T22:23:32;7.90;52.60
43541;DHT22;29549;40.386;-3.710;2023-02-11T22:33:34;7.90;52.40
43541;DHT22;29549;40.386;-3.710;2023-02-11T22:43:36;7.80;52.40
43541;DHT22;29549;40.386;-3.710;2023-02-11T22:53:38;7.70;52.50
43541;DHT22;29549;40.386;-3.710;2023-02-11T23:03:40;7.70;52.40
43541;DHT22;29549;40.386;-3.710;2023-02-11T23:13:46;7.60;52.40
43541;DHT22;29549;40.386;-3.710;2023-02-11T23:23:56;7.60;52.60
43541;DHT22;29549;40.386;-3.710;2023-02-11T23:33:59;7.50;52.70
43541;DHT22;29549;40.386;-3.710;2023-02-11T23:44:02;7.50;53.00
43541;DHT22;29549;40.386;-3.710;2023-02-11T23:54:04;7.40;53.70
